Pantego, Texas
Current Conditions -  °F | °C
As of 7:53 AM on Sunday 25 Jan 2015 (Local Time) from KGKY Reporting Station
Clear Clear  
Wind Chill: 43°   Ceiling: Unl
Heat Index: 48°   Visibility: 10mi
Dew Point: 34°   Wind: 12mph
Humidity: 58%   Direction: 300°WNW
Pressure: 30"   Gusts: NA
Location:  32.6916°N, 97.1334°W
Report Text: KGKY 251353Z 30010KT 10SM CLR 09/01 A3000 RMK AO2 SLP158 T00890011 $
Loading
Personal Weather Stations






























Interactive Weather Map New forecast layout! Learn more

10-Day Weather Forecast

Advertisements
Track Severe Weather on mobile